createdAt,value
2023-02-11T00:00:43.330Z,-5.45
2023-02-11T00:01:45.698Z,-5.51
2023-02-11T00:02:48.300Z,-5.42
2023-02-11T00:03:51.163Z,-5.39
2023-02-11T00:04:53.617Z,-5.44
2023-02-11T00:06:04.709Z,-5.43
2023-02-11T00:07:07.289Z,-5.46
2023-02-11T00:08:09.651Z,-5.67
2023-02-11T00:09:12.634Z,-5.64
2023-02-11T00:10:15.101Z,-5.57
2023-02-11T00:11:19.011Z,-5.46
2023-02-11T00:12:21.696Z,-5.32
2023-02-11T00:13:24.867Z,-5.41
2023-02-11T00:14:27.546Z,-5.38
2023-02-11T00:15:29.963Z,-5.33
2023-02-11T00:16:33.047Z,-5.41
2023-02-11T00:17:35.970Z,-5.32
2023-02-11T00:18:38.716Z,-5.31
2023-02-11T00:19:41.367Z,-5.33
2023-02-11T00:20:43.913Z,-5.30
2023-02-11T00:21:46.428Z,-5.33
2023-02-11T00:22:48.773Z,-5.31
2023-02-11T00:23:51.779Z,-5.28
2023-02-11T00:24:54.368Z,-5.32
2023-02-11T00:25:56.765Z,-5.27
2023-02-11T00:26:59.253Z,-5.25
2023-02-11T00:28:01.701Z,-5.22
2023-02-11T00:29:05.359Z,-5.24
2023-02-11T00:30:08.445Z,-5.38
2023-02-11T00:31:11.947Z,-5.50
2023-02-11T00:32:14.522Z,-5.43
2023-02-11T00:33:16.830Z,-5.47
2023-02-11T00:34:19.642Z,-5.44
2023-02-11T00:35:22.447Z,-5.44
2023-02-11T00:36:27.372Z,-5.49
2023-02-11T00:37:30.130Z,-5.51
2023-02-11T00:38:32.674Z,-5.52
2023-02-11T00:39:37.204Z,-5.40
2023-02-11T00:40:39.782Z,-5.41
2023-02-11T00:41:42.222Z,-5.42
2023-02-11T00:42:44.680Z,-5.38
2023-02-11T00:43:47.415Z,-5.40
2023-02-11T00:44:49.969Z,-5.41
2023-02-11T00:45:52.771Z,-5.41
2023-02-11T00:46:55.339Z,-5.45
2023-02-11T00:47:57.918Z,-5.50
2023-02-11T00:49:00.370Z,-5.43
2023-02-11T00:50:05.424Z,-5.65
2023-02-11T00:51:08.378Z,-5.73
2023-02-11T00:52:10.785Z,-5.65
2023-02-11T00:53:13.236Z,-5.62
2023-02-11T00:54:15.598Z,-5.58
2023-02-11T00:55:19.008Z,-5.57
2023-02-11T00:56:21.537Z,-5.55
2023-02-11T00:57:24.901Z,-5.49
2023-02-11T00:58:28.419Z,-5.51
2023-02-11T00:59:30.974Z,-5.51
2023-02-11T01:00:33.489Z,-5.57
2023-02-11T01:01:36.114Z,-5.63
2023-02-11T01:02:38.699Z,-5.69
2023-02-11T01:03:41.624Z,-5.70
2023-02-11T01:04:44.090Z,-5.69
2023-02-11T01:05:46.687Z,-5.68
2023-02-11T01:06:49.200Z,-5.70
2023-02-11T01:07:51.610Z,-5.73
2023-02-11T01:08:54.102Z,-5.81
2023-02-11T01:09:57.058Z,-6.01
2023-02-11T01:11:02.916Z,-6.02
2023-02-11T01:12:05.780Z,-5.90
2023-02-11T01:13:08.073Z,-5.75
2023-02-11T01:14:10.630Z,-5.72
2023-02-11T01:15:16.931Z,-5.81
2023-02-11T01:16:21.023Z,-5.75
2023-02-11T01:17:24.008Z,-5.74
2023-02-11T01:18:26.900Z,-5.75
2023-02-11T01:19:29.436Z,-5.71
2023-02-11T01:20:32.097Z,-5.69
2023-02-11T01:21:34.555Z,-5.70
2023-02-11T01:22:39.714Z,-5.60
2023-02-11T01:23:42.690Z,-5.70
2023-02-11T01:24:47.433Z,-5.71
2023-02-11T01:25:50.844Z,-5.79
2023-02-11T01:26:54.081Z,-5.87
2023-02-11T01:27:56.690Z,-5.83
2023-02-11T01:29:01.079Z,-5.95
2023-02-11T01:30:04.014Z,-6.05
2023-02-11T01:31:06.552Z,-6.05
2023-02-11T01:32:09.207Z,-5.94
2023-02-11T01:33:12.775Z,-6.00
2023-02-11T01:34:15.329Z,-6.03
2023-02-11T01:35:17.841Z,-5.93
2023-02-11T01:36:20.432Z,-5.95
2023-02-11T01:37:23.217Z,-5.98
2023-02-11T01:38:26.750Z,-5.91
2023-02-11T01:39:29.132Z,-6.03
2023-02-11T01:40:31.624Z,-5.96
2023-02-11T01:41:34.016Z,-5.89
2023-02-11T01:42:36.402Z,-5.83
2023-02-11T01:43:42.740Z,-5.83
2023-02-11T01:44:45.369Z,-5.81
2023-02-11T01:45:47.661Z,-5.81
2023-02-11T01:46:50.279Z,-5.80
2023-02-11T01:47:54.904Z,-5.81
2023-02-11T01:49:18.704Z,-5.87
2023-02-11T01:50:21.242Z,-6.03
2023-02-11T01:51:45.018Z,-5.86
2023-02-11T01:52:48.072Z,-5.88
2023-02-11T01:54:10.895Z,-5.87
2023-02-11T01:55:33.102Z,-5.85
2023-02-11T01:57:01.415Z,-5.83
2023-02-11T01:58:05.384Z,-5.91
2023-02-11T01:59:17.517Z,-5.90
2023-02-11T02:00:33.902Z,-5.93
2023-02-11T02:01:39.134Z,-5.91
2023-02-11T02:02:52.889Z,-5.93
2023-02-11T02:04:00.853Z,-5.96
2023-02-11T02:05:16.852Z,-5.95
2023-02-11T02:06:26.651Z,-5.93
2023-02-11T02:07:43.104Z,-6.06
2023-02-11T02:08:57.906Z,-6.00
2023-02-11T02:10:07.775Z,-5.95
2023-02-11T02:11:11.938Z,-5.91
2023-02-11T02:12:14.429Z,-5.86
2023-02-11T02:13:17.935Z,-5.82
2023-02-11T02:14:20.858Z,-5.84
2023-02-11T02:15:25.374Z,-5.97
2023-02-11T02:16:31.928Z,-6.13
2023-02-11T02:17:46.716Z,-6.23
2023-02-11T02:19:23.325Z,-6.16
2023-02-11T02:20:50.307Z,-6.16
2023-02-11T02:22:10.789Z,-6.06
2023-02-11T02:23:31.944Z,-6.20
2023-02-11T02:25:01.205Z,-6.12
2023-02-11T02:26:22.222Z,-6.07
2023-02-11T02:27:46.051Z,-6.32
2023-02-11T02:28:48.269Z,-6.36
2023-02-11T02:30:12.151Z,-6.21
2023-02-11T02:31:52.574Z,-6.16
2023-02-11T02:33:21.606Z,-6.18
2023-02-11T02:34:57.505Z,-6.15
2023-02-11T02:36:22.719Z,-6.13
2023-02-11T02:37:34.914Z,-6.12
2023-02-11T02:38:39.989Z,-6.21
2023-02-11T02:39:42.376Z,-6.24
2023-02-11T02:40:50.554Z,-6.20
2023-02-11T02:41:54.627Z,-6.12
2023-02-11T02:42:58.946Z,-6.09
2023-02-11T02:44:01.988Z,-6.10
2023-02-11T02:45:04.809Z,-6.15
2023-02-11T02:46:31.808Z,-6.10
2023-02-11T02:47:34.194Z,-6.11
2023-02-11T02:48:36.429Z,-6.17
2023-02-11T02:49:38.727Z,-6.14
2023-02-11T02:50:41.378Z,-6.11
2023-02-11T02:52:00.344Z,-6.04
2023-02-11T02:53:11.892Z,-6.05
2023-02-11T02:54:34.320Z,-6.04
2023-02-11T02:56:12.553Z,-6.01
2023-02-11T02:57:33.015Z,-6.03
2023-02-11T02:58:54.135Z,-6.10
2023-02-11T03:00:14.793Z,-6.07
2023-02-11T03:01:30.020Z,-6.30
2023-02-11T03:02:50.587Z,-6.40
2023-02-11T03:04:27.249Z,-6.26
2023-02-11T03:05:51.352Z,-6.35
2023-02-11T03:07:16.490Z,-6.25
2023-02-11T03:08:32.677Z,-6.22
2023-02-11T03:09:46.114Z,-6.18
2023-02-11T03:10:51.651Z,-6.19
2023-02-11T03:11:54.351Z,-6.24
2023-02-11T03:12:58.062Z,-6.29
2023-02-11T03:14:03.860Z,-6.25
2023-02-11T03:15:07.588Z,-6.29
2023-02-11T03:16:15.442Z,-6.20
2023-02-11T03:17:19.197Z,-6.26
2023-02-11T03:18:26.543Z,-6.22
2023-02-11T03:19:38.744Z,-6.32
2023-02-11T03:20:44.726Z,-6.33
2023-02-11T03:21:50.162Z,-6.21
2023-02-11T03:22:56.175Z,-6.14
2023-02-11T03:24:03.001Z,-6.36
2023-02-11T03:25:05.932Z,-6.38
2023-02-11T03:26:49.033Z,-6.36
2023-02-11T03:28:12.147Z,-6.60
2023-02-11T03:29:23.017Z,-6.63
2023-02-11T03:30:25.425Z,-6.61
2023-02-11T03:31:54.786Z,-6.50
2023-02-11T03:33:14.577Z,-6.36
2023-02-11T03:34:26.718Z,-6.51
2023-02-11T03:35:52.478Z,-6.57
2023-02-11T03:37:00.089Z,-6.66
2023-02-11T03:38:07.747Z,-6.67
2023-02-11T03:39:12.281Z,-6.54
2023-02-11T03:40:20.647Z,-6.63
2023-02-11T03:41:24.979Z,-6.71
2023-02-11T03:42:33.604Z,-6.66
2023-02-11T03:43:42.283Z,-6.55
2023-02-11T03:44:52.081Z,-6.65
2023-02-11T03:45:56.555Z,-6.74
2023-02-11T03:46:59.608Z,-6.62
2023-02-11T03:48:07.687Z,-6.55
2023-02-11T03:49:14.001Z,-6.48
2023-02-11T03:50:18.304Z,-6.50
2023-02-11T03:51:23.666Z,-6.52
2023-02-11T03:52:27.192Z,-6.48
2023-02-11T03:53:29.551Z,-6.47
2023-02-11T03:54:32.139Z,-6.46
2023-02-11T03:55:38.896Z,-6.54
2023-02-11T03:56:52.399Z,-6.47
2023-02-11T03:57:54.803Z,-6.52
2023-02-11T03:58:57.623Z,-6.51
2023-02-11T04:00:00.690Z,-6.53
2023-02-11T04:01:05.377Z,-6.55
2023-02-11T04:02:07.752Z,-6.56
2023-02-11T04:03:11.386Z,-6.67
2023-02-11T04:04:14.137Z,-6.79
2023-02-11T04:05:16.733Z,-6.67
2023-02-11T04:06:19.202Z,-6.68
2023-02-11T04:07:21.714Z,-6.75
2023-02-11T04:08:24.056Z,-6.68
2023-02-11T04:09:26.349Z,-6.77
2023-02-11T04:10:28.643Z,-6.93
2023-02-11T04:11:31.054Z,-6.91
2023-02-11T04:12:33.626Z,-6.83
2023-02-11T04:13:35.961Z,-6.81
2023-02-11T04:14:38.364Z,-6.78
2023-02-11T04:15:40.926Z,-6.92
2023-02-11T04:16:43.391Z,-6.88
2023-02-11T04:17:46.187Z,-6.81
2023-02-11T04:18:48.881Z,-6.69
2023-02-11T04:19:51.520Z,-6.61
2023-02-11T04:20:54.036Z,-6.65
2023-02-11T04:21:56.836Z,-6.82
2023-02-11T04:22:59.412Z,-6.90
2023-02-11T04:24:01.916Z,-7.00
2023-02-11T04:25:06.092Z,-6.94
2023-02-11T04:26:08.466Z,-6.96
2023-02-11T04:27:10.848Z,-6.95
2023-02-11T04:28:13.302Z,-6.89
2023-02-11T04:29:16.208Z,-6.83
2023-02-11T04:30:18.765Z,-6.74
2023-02-11T04:31:21.398Z,-6.68
2023-02-11T04:32:23.835Z,-6.71
2023-02-11T04:33:26.429Z,-6.62
2023-02-11T04:34:29.201Z,-6.58
2023-02-11T04:35:31.763Z,-6.67
2023-02-11T04:36:34.200Z,-6.66
2023-02-11T04:37:36.559Z,-6.62
2023-02-11T04:38:38.971Z,-6.65
2023-02-11T04:39:41.637Z,-6.63
2023-02-11T04:40:44.054Z,-6.60
2023-02-11T04:41:46.665Z,-6.61
2023-02-11T04:42:49.016Z,-6.53
2023-02-11T04:43:51.630Z,-6.45
2023-02-11T04:44:54.066Z,-6.43
2023-02-11T04:45:59.442Z,-6.41
2023-02-11T04:47:02.590Z,-6.43
2023-02-11T04:48:05.160Z,-6.45
2023-02-11T04:49:07.774Z,-6.52
2023-02-11T04:50:10.474Z,-6.51
2023-02-11T04:51:12.850Z,-6.51
2023-02-11T04:52:15.237Z,-6.75
2023-02-11T04:53:17.636Z,-6.77
2023-02-11T04:54:20.368Z,-6.73
2023-02-11T04:55:22.940Z,-6.67
2023-02-11T04:56:25.408Z,-6.59
2023-02-11T04:57:27.734Z,-6.54
2023-02-11T04:58:30.181Z,-6.50
2023-02-11T04:59:32.968Z,-6.56
2023-02-11T05:00:35.361Z,-6.55
2023-02-11T05:01:37.749Z,-6.57
2023-02-11T05:02:40.232Z,-6.53
2023-02-11T05:03:43.510Z,-6.55
2023-02-11T05:04:45.825Z,-6.48
2023-02-11T05:05:48.547Z,-6.55
2023-02-11T05:06:51.166Z,-6.58
2023-02-11T05:07:54.342Z,-6.61
2023-02-11T05:08:57.158Z,-6.62
2023-02-11T05:10:00.201Z,-6.62
2023-02-11T05:11:06.050Z,-6.60
2023-02-11T05:12:08.460Z,-6.66
2023-02-11T05:13:10.871Z,-6.86
2023-02-11T05:14:13.383Z,-6.98
2023-02-11T05:15:16.157Z,-7.01
2023-02-11T05:16:19.131Z,-6.95
2023-02-11T05:17:21.604Z,-6.97
2023-02-11T05:18:24.371Z,-7.02
2023-02-11T05:19:26.860Z,-7.07
2023-02-11T05:20:29.320Z,-7.14
2023-02-11T05:21:31.748Z,-7.12
2023-02-11T05:22:34.100Z,-6.99
2023-02-11T05:23:36.970Z,-6.93
2023-02-11T05:24:39.441Z,-6.83
2023-02-11T05:25:41.776Z,-6.76
2023-02-11T05:26:44.329Z,-6.76
2023-02-11T05:27:46.736Z,-6.75
2023-02-11T05:28:49.547Z,-6.64
2023-02-11T05:29:51.943Z,-6.67
2023-02-11T05:30:54.567Z,-6.67
2023-02-11T05:31:58.521Z,-6.66
2023-02-11T05:33:00.985Z,-6.61
2023-02-11T05:34:04.258Z,-6.72
2023-02-11T05:35:06.949Z,-6.78
2023-02-11T05:36:12.051Z,-6.83
2023-02-11T05:37:14.517Z,-6.91
2023-02-11T05:38:17.318Z,-6.83
2023-02-11T05:39:19.797Z,-6.79
2023-02-11T05:40:22.197Z,-6.81
2023-02-11T05:41:24.596Z,-6.87
2023-02-11T05:42:27.381Z,-6.89
2023-02-11T05:43:29.833Z,-6.87
2023-02-11T05:44:32.344Z,-6.87
2023-02-11T05:45:34.821Z,-6.96
2023-02-11T05:46:37.539Z,-6.95
2023-02-11T05:47:40.053Z,-6.94
2023-02-11T05:48:42.443Z,-6.91
2023-02-11T05:49:45.086Z,-6.85
2023-02-11T05:50:47.687Z,-6.89
2023-02-11T05:51:50.165Z,-6.84
2023-02-11T05:52:52.748Z,-6.78
2023-02-11T05:53:55.856Z,-6.86
2023-02-11T05:54:58.361Z,-6.83
2023-02-11T05:56:00.842Z,-6.91
2023-02-11T05:57:03.392Z,-6.84
2023-02-11T05:58:06.264Z,-6.85
2023-02-11T05:59:08.811Z,-6.72
2023-02-11T06:00:11.976Z,-6.62
2023-02-11T06:01:17.516Z,-6.59
2023-02-11T06:02:20.190Z,-6.55
2023-02-11T06:03:22.629Z,-6.52
2023-02-11T06:04:25.003Z,-6.50
2023-02-11T06:05:27.519Z,-6.31
2023-02-11T06:06:30.138Z,-6.24
2023-02-11T06:07:32.584Z,-6.25
2023-02-11T06:08:36.480Z,-6.16
2023-02-11T06:09:40.918Z,-6.04
2023-02-11T06:10:45.678Z,-6.17
2023-02-11T06:11:48.079Z,-6.14
2023-02-11T06:12:50.437Z,-6.18
2023-02-11T06:13:52.754Z,-6.12
2023-02-11T06:14:55.103Z,-6.03
2023-02-11T06:15:58.792Z,-5.97
2023-02-11T06:17:01.394Z,-5.92
2023-02-11T06:18:04.245Z,-5.87
2023-02-11T06:19:06.635Z,-5.79
2023-02-11T06:20:10.749Z,-5.74
2023-02-11T06:21:13.248Z,-5.72
2023-02-11T06:22:15.925Z,-5.69
2023-02-11T06:23:18.545Z,-5.77
2023-02-11T06:24:47.815Z,-5.64
2023-02-11T06:25:43.274Z,-5.70
2023-02-11T06:26:45.977Z,-5.63
2023-02-11T06:27:48.290Z,-5.55
2023-02-11T06:28:50.797Z,-5.46
2023-02-11T06:29:53.169Z,-5.43
2023-02-11T06:30:55.593Z,-5.36
2023-02-11T06:31:58.182Z,-5.39
2023-02-11T06:33:00.669Z,-5.49
2023-02-11T06:34:03.060Z,-5.43
2023-02-11T06:35:05.687Z,-5.35
2023-02-11T06:36:19.873Z,-5.34
2023-02-11T06:37:22.329Z,-5.33
2023-02-11T06:38:24.666Z,-5.24
2023-02-11T06:39:27.402Z,-5.13
2023-02-11T06:40:29.922Z,-5.04
2023-02-11T06:41:35.361Z,-4.98
2023-02-11T06:42:39.429Z,-5.01
2023-02-11T06:43:42.044Z,-4.95
2023-02-11T06:44:44.760Z,-4.78
2023-02-11T06:45:53.666Z,-4.66
2023-02-11T06:46:56.044Z,-4.43
2023-02-11T06:47:58.512Z,-3.97
2023-02-11T06:49:00.957Z,-3.52
2023-02-11T06:50:04.764Z,-3.14
2023-02-11T06:51:13.237Z,-3.45
2023-02-11T06:52:15.595Z,-3.60
2023-02-11T06:53:17.933Z,-3.70
2023-02-11T06:54:20.456Z,-3.90
2023-02-11T06:55:22.790Z,-3.93
2023-02-11T06:56:27.617Z,-4.15
2023-02-11T06:57:31.149Z,-4.36
2023-02-11T06:58:34.159Z,-4.32
2023-02-11T06:59:36.574Z,-4.26
2023-02-11T07:00:39.055Z,-4.40
2023-02-11T07:01:42.105Z,-4.29
2023-02-11T07:02:44.686Z,-4.44
2023-02-11T07:03:47.457Z,-4.43
2023-02-11T07:04:50.044Z,-4.41
2023-02-11T07:05:52.659Z,-4.47
2023-02-11T07:06:55.297Z,-4.35
2023-02-11T07:07:57.638Z,-4.26
2023-02-11T07:09:00.325Z,-4.40
2023-02-11T07:10:06.038Z,-4.30
2023-02-11T07:11:11.207Z,-4.30
2023-02-11T07:12:13.520Z,-4.25
2023-02-11T07:13:16.009Z,-4.18
2023-02-11T07:14:18.674Z,-4.25
2023-02-11T07:15:21.209Z,-4.18
2023-02-11T07:16:23.963Z,-4.12
2023-02-11T07:17:26.429Z,-4.09
2023-02-11T07:18:31.848Z,-3.99
2023-02-11T07:19:34.261Z,-3.96
2023-02-11T07:20:38.916Z,-4.03
2023-02-11T07:21:41.247Z,-3.91
2023-02-11T07:22:43.577Z,-3.80
2023-02-11T07:23:46.752Z,-3.80
2023-02-11T07:24:49.059Z,-3.73
2023-02-11T07:25:51.775Z,-3.64
2023-02-11T07:26:54.701Z,-3.52
2023-02-11T07:27:57.179Z,-3.57
2023-02-11T07:28:59.778Z,-3.55
2023-02-11T07:30:04.848Z,-3.61
2023-02-11T07:31:16.582Z,-3.61
2023-02-11T07:32:19.061Z,-3.67
2023-02-11T07:33:21.578Z,-3.54
2023-02-11T07:34:24.074Z,-3.42
2023-02-11T07:35:26.595Z,-3.45
2023-02-11T07:36:32.245Z,-3.28
2023-02-11T07:37:35.704Z,-3.14
2023-02-11T07:38:39.126Z,-3.33
2023-02-11T07:39:43.774Z,-3.44
2023-02-11T07:40:46.182Z,-3.32
2023-02-11T07:41:49.490Z,-3.31
2023-02-11T07:42:52.371Z,-3.42
2023-02-11T07:43:55.433Z,-3.39
2023-02-11T07:44:57.922Z,-3.41
2023-02-11T07:46:03.259Z,-3.44
2023-02-11T07:47:05.686Z,-3.50
2023-02-11T07:48:08.070Z,-3.51
2023-02-11T07:49:11.247Z,-3.38
2023-02-11T07:50:13.756Z,-3.34
2023-02-11T07:51:21.956Z,-3.51
2023-02-11T07:52:24.391Z,-3.45
2023-02-11T07:53:26.678Z,-3.49
2023-02-11T07:54:29.045Z,-3.34
2023-02-11T07:55:31.470Z,-3.49
2023-02-11T07:56:34.630Z,-3.44
2023-02-11T07:57:37.414Z,-3.37
2023-02-11T07:58:42.334Z,-3.27
2023-02-11T07:59:44.895Z,-3.30
2023-02-11T08:00:47.300Z,-3.37
2023-02-11T08:01:51.567Z,-3.18
2023-02-11T08:02:53.886Z,-3.24
2023-02-11T08:03:57.777Z,-3.16
2023-02-11T08:05:00.148Z,-3.08
2023-02-11T08:06:07.822Z,-3.10
2023-02-11T08:07:10.182Z,-3.10
2023-02-11T08:08:12.702Z,-3.05
2023-02-11T08:09:19.373Z,-3.06
2023-02-11T08:10:23.061Z,-3.04
2023-02-11T08:11:28.439Z,-2.93
2023-02-11T08:12:30.968Z,-3.11
2023-02-11T08:13:33.681Z,-3.13
2023-02-11T08:14:36.086Z,-3.07
2023-02-11T08:15:38.365Z,-3.24
2023-02-11T08:16:41.547Z,-3.02
2023-02-11T08:17:44.061Z,-3.01
2023-02-11T08:18:47.002Z,-2.93
2023-02-11T08:19:49.415Z,-2.96
2023-02-11T08:20:51.990Z,-2.98
2023-02-11T08:21:58.672Z,-3.08
2023-02-11T08:23:02.331Z,-2.98
2023-02-11T08:24:04.799Z,-2.78
2023-02-11T08:25:07.436Z,-2.84
2023-02-11T08:26:13.390Z,-2.82
2023-02-11T08:27:16.456Z,-2.89
2023-02-11T08:28:19.181Z,-2.86
2023-02-11T08:29:21.468Z,-2.84
2023-02-11T08:30:26.284Z,-2.86
2023-02-11T08:31:34.956Z,-2.82
2023-02-11T08:32:37.621Z,-2.77
2023-02-11T08:33:42.835Z,-2.71
2023-02-11T08:34:48.007Z,-2.64
2023-02-11T08:35:50.427Z,-2.64
2023-02-11T08:36:52.895Z,-2.54
2023-02-11T08:37:55.487Z,-2.47
2023-02-11T08:39:18.242Z,-2.67
2023-02-11T08:40:21.868Z,-2.55
2023-02-11T08:41:24.349Z,-2.54
2023-02-11T08:42:26.811Z,-2.65
2023-02-11T08:43:29.353Z,-2.59
2023-02-11T08:44:31.714Z,-2.47
2023-02-11T08:45:34.145Z,-2.41
2023-02-11T08:46:36.590Z,-2.55
2023-02-11T08:47:39.714Z,-2.51
2023-02-11T08:48:42.306Z,-2.35
2023-02-11T08:49:44.727Z,-2.34
2023-02-11T08:50:47.456Z,-2.32
2023-02-11T08:51:50.225Z,-2.32
2023-02-11T08:52:52.692Z,-2.20
2023-02-11T08:53:55.624Z,-2.25
2023-02-11T08:54:58.965Z,-2.20
2023-02-11T08:56:01.663Z,-2.17
2023-02-11T08:57:04.998Z,-2.17
2023-02-11T08:58:07.614Z,-2.08
2023-02-11T08:59:14.315Z,-2.11
2023-02-11T09:00:17.661Z,-2.13
2023-02-11T09:01:27.865Z,-2.06
2023-02-11T09:02:30.308Z,-2.01
2023-02-11T09:03:32.644Z,-1.88
2023-02-11T09:04:35.017Z,-1.81
2023-02-11T09:05:48.074Z,-1.87
2023-02-11T09:06:50.536Z,-1.73
2023-02-11T09:07:53.022Z,-1.67
2023-02-11T09:08:57.823Z,-1.62
2023-02-11T09:10:00.306Z,-1.63
2023-02-11T09:11:03.898Z,-1.51
2023-02-11T09:12:06.483Z,-1.53
2023-02-11T09:13:09.506Z,-1.46
2023-02-11T09:14:21.445Z,-1.36
2023-02-11T09:15:23.788Z,-1.35
2023-02-11T09:16:28.910Z,-1.40
2023-02-11T09:17:31.545Z,-1.45
2023-02-11T09:18:34.474Z,-1.51
2023-02-11T09:19:36.891Z,-1.24
2023-02-11T09:20:40.281Z,-1.23
2023-02-11T09:21:42.846Z,-1.33
2023-02-11T09:22:45.399Z,-1.14
2023-02-11T09:23:48.700Z,-1.06
2023-02-11T09:24:51.202Z,-0.95
2023-02-11T09:25:53.618Z,-0.73
2023-02-11T09:26:55.977Z,-0.48
2023-02-11T09:27:58.409Z,-0.41
2023-02-11T09:29:01.808Z,-0.39
2023-02-11T09:30:04.643Z,-0.57
2023-02-11T09:31:11.390Z,-0.64
2023-02-11T09:32:14.047Z,-0.72
2023-02-11T09:33:16.998Z,-0.65
2023-02-11T09:34:19.604Z,-0.65
2023-02-11T09:35:22.023Z,-0.49
2023-02-11T09:36:27.297Z,-0.55
2023-02-11T09:37:29.659Z,-0.62
2023-02-11T09:38:32.478Z,-0.67
2023-02-11T09:39:34.782Z,-0.84
2023-02-11T09:40:37.426Z,-0.56
2023-02-11T09:41:45.894Z,-0.57
2023-02-11T09:43:03.012Z,-0.90
2023-02-11T09:44:10.880Z,-0.85
2023-02-11T09:45:22.429Z,-0.70
2023-02-11T09:46:27.731Z,-0.59
2023-02-11T09:47:36.029Z,-0.77
2023-02-11T09:48:44.098Z,-0.63
2023-02-11T09:49:51.945Z,-0.36
2023-02-11T09:51:00.620Z,-0.18
2023-02-11T09:52:15.618Z,-0.03
2023-02-11T09:53:25.252Z,0.05
2023-02-11T09:54:37.690Z,0.28
2023-02-11T09:55:43.332Z,0.53
2023-02-11T09:56:46.672Z,0.93
2023-02-11T09:57:49.423Z,0.92
2023-02-11T09:58:53.789Z,1.00
2023-02-11T09:59:57.837Z,0.97
2023-02-11T10:01:28.140Z,1.25
2023-02-11T10:02:30.862Z,1.45
2023-02-11T10:03:43.689Z,1.22
2023-02-11T10:05:29.518Z,1.19
2023-02-11T10:06:38.584Z,1.20
2023-02-11T10:08:02.947Z,1.25
2023-02-11T10:09:38.150Z,1.00
2023-02-11T10:10:44.915Z,0.98
2023-02-11T10:12:05.758Z,0.94
2023-02-11T10:13:10.672Z,0.88
2023-02-11T10:14:35.865Z,0.81
2023-02-11T10:16:09.472Z,0.81
2023-02-11T10:17:21.020Z,0.70
2023-02-11T10:18:39.501Z,0.79
2023-02-11T10:20:20.419Z,0.72
2023-02-11T10:22:07.003Z,0.84
2023-02-11T10:23:16.051Z,0.55
2023-02-11T10:24:19.297Z,0.69
2023-02-11T10:25:37.194Z,0.78
2023-02-11T10:26:43.625Z,0.86
2023-02-11T10:27:46.459Z,0.81
2023-02-11T10:28:53.295Z,0.89
2023-02-11T10:30:16.294Z,0.61
2023-02-11T10:31:27.159Z,0.48
2023-02-11T10:32:50.090Z,0.58
2023-02-11T10:34:10.539Z,0.74
2023-02-11T10:35:23.799Z,0.66
2023-02-11T10:36:35.320Z,0.58
2023-02-11T10:37:37.890Z,0.46
2023-02-11T10:38:40.854Z,0.68
2023-02-11T10:39:43.565Z,0.66
2023-02-11T10:40:46.322Z,0.68
2023-02-11T10:42:01.344Z,0.60
2023-02-11T10:43:12.065Z,0.51
2023-02-11T10:44:29.986Z,0.41
2023-02-11T10:45:38.589Z,0.42
2023-02-11T10:46:40.936Z,0.70
2023-02-11T10:47:44.170Z,0.78
2023-02-11T10:48:53.035Z,0.72
2023-02-11T10:50:03.407Z,0.78
2023-02-11T10:51:25.485Z,0.77
2023-02-11T10:52:30.891Z,0.87
2023-02-11T10:53:34.982Z,0.83
2023-02-11T10:54:37.378Z,0.97
2023-02-11T10:55:49.408Z,1.05
2023-02-11T10:56:59.852Z,0.91
2023-02-11T10:58:03.344Z,0.88
2023-02-11T10:59:14.676Z,1.10
2023-02-11T11:00:27.264Z,1.22
2023-02-11T11:01:52.730Z,1.29
2023-02-11T11:03:00.710Z,1.29
2023-02-11T11:04:03.151Z,1.29
2023-02-11T11:05:20.052Z,1.22
2023-02-11T11:06:31.947Z,1.21
2023-02-11T11:07:34.891Z,1.50
2023-02-11T11:08:48.013Z,1.52
2023-02-11T11:09:55.670Z,1.66
2023-02-11T11:11:09.991Z,1.87
2023-02-11T11:12:41.860Z,1.79
2023-02-11T11:13:53.782Z,1.82
2023-02-11T11:14:59.942Z,1.69
2023-02-11T11:16:14.658Z,1.71
2023-02-11T11:17:19.255Z,1.68
2023-02-11T11:18:23.462Z,1.56
2023-02-11T11:19:27.139Z,1.76
2023-02-11T11:20:33.752Z,1.81
2023-02-11T11:21:45.104Z,1.96
2023-02-11T11:22:50.033Z,1.95
2023-02-11T11:24:03.834Z,2.12
2023-02-11T11:25:20.341Z,2.21
2023-02-11T11:26:24.040Z,2.43
2023-02-11T11:27:26.509Z,2.83
2023-02-11T11:28:31.550Z,3.36
2023-02-11T11:29:46.037Z,3.77
2023-02-11T11:30:49.460Z,4.24
2023-02-11T11:31:57.608Z,4.41
2023-02-11T11:33:01.337Z,4.35
2023-02-11T11:34:23.493Z,4.39
2023-02-11T11:35:31.504Z,4.82
2023-02-11T11:36:39.928Z,4.86
2023-02-11T11:37:42.614Z,4.91
2023-02-11T11:38:52.662Z,4.52
2023-02-11T11:40:03.386Z,4.50
2023-02-11T11:41:26.504Z,4.90
2023-02-11T11:42:34.701Z,4.83
2023-02-11T11:43:37.891Z,5.03
2023-02-11T11:44:40.461Z,4.93
2023-02-11T11:45:58.578Z,4.77
2023-02-11T11:47:13.589Z,4.89
2023-02-11T11:48:24.333Z,4.91
2023-02-11T11:49:34.803Z,4.70
2023-02-11T11:50:57.315Z,4.44
2023-02-11T11:52:27.094Z,4.16
2023-02-11T11:53:51.407Z,4.36
2023-02-11T11:55:05.234Z,4.64
2023-02-11T11:56:14.630Z,5.05
2023-02-11T11:57:22.805Z,5.33
2023-02-11T11:58:25.571Z,5.15
2023-02-11T11:59:29.831Z,5.28
2023-02-11T12:00:51.092Z,5.22
2023-02-11T12:02:27.910Z,5.33
2023-02-11T12:03:55.369Z,5.75
2023-02-11T12:05:18.394Z,5.29
2023-02-11T12:06:26.887Z,5.67
2023-02-11T12:07:59.751Z,4.81
2023-02-11T12:09:17.636Z,4.34
2023-02-11T12:10:32.390Z,4.39
2023-02-11T12:11:34.854Z,4.24
2023-02-11T12:13:03.855Z,4.01
2023-02-11T12:14:46.653Z,3.50
2023-02-11T12:16:16.449Z,3.39
2023-02-11T12:17:38.195Z,3.03
2023-02-11T12:18:50.074Z,2.87
2023-02-11T12:19:56.590Z,3.19
2023-02-11T12:21:10.163Z,3.56
2023-02-11T12:22:18.749Z,4.10
2023-02-11T12:23:42.469Z,4.53
2023-02-11T12:25:22.678Z,4.86
2023-02-11T12:26:49.502Z,5.22
2023-02-11T12:28:07.879Z,5.12
2023-02-11T12:29:26.585Z,5.58
2023-02-11T12:31:14.606Z,5.61
2023-02-11T12:32:34.056Z,5.65
2023-02-11T12:34:07.994Z,5.74
2023-02-11T12:35:19.951Z,5.92
2023-02-11T12:36:40.922Z,5.84
2023-02-11T12:37:53.130Z,5.35
2023-02-11T12:39:29.777Z,5.35
2023-02-11T12:40:41.914Z,5.32
2023-02-11T12:42:29.657Z,5.36
2023-02-11T12:43:41.209Z,5.55
2023-02-11T12:45:12.233Z,5.44
2023-02-11T12:46:25.072Z,5.11
2023-02-11T12:47:33.711Z,5.64
2023-02-11T12:48:51.427Z,5.66
2023-02-11T12:50:07.283Z,6.25
2023-02-11T12:51:21.741Z,6.00
2023-02-11T12:52:39.774Z,6.25
2023-02-11T12:53:51.696Z,6.35
2023-02-11T12:55:09.664Z,6.23
2023-02-11T12:56:24.329Z,5.89
2023-02-11T12:57:33.965Z,5.46
2023-02-11T12:58:45.011Z,5.88
2023-02-11T13:00:02.981Z,5.70
2023-02-11T13:01:16.386Z,5.85
2023-02-11T13:03:04.064Z,6.01
2023-02-11T13:04:09.938Z,6.05
2023-02-11T13:05:34.979Z,6.06
2023-02-11T13:06:43.230Z,6.11
2023-02-11T13:07:46.993Z,6.01
2023-02-11T13:09:02.425Z,6.30
2023-02-11T13:10:14.255Z,6.59
2023-02-11T13:11:41.531Z,6.36
2023-02-11T13:13:05.557Z,6.01
2023-02-11T13:14:22.611Z,5.78
2023-02-11T13:15:26.104Z,5.85
2023-02-11T13:16:38.811Z,6.35
2023-02-11T13:17:55.631Z,6.32
2023-02-11T13:19:04.083Z,6.46
2023-02-11T13:20:27.174Z,6.10
2023-02-11T13:21:38.847Z,5.98
2023-02-11T13:22:52.999Z,5.86
2023-02-11T13:24:22.693Z,5.99
2023-02-11T13:25:31.574Z,6.02
2023-02-11T13:27:20.797Z,5.85
2023-02-11T13:28:24.613Z,6.02
2023-02-11T13:29:35.933Z,6.03
2023-02-11T13:30:47.472Z,5.95
2023-02-11T13:32:05.410Z,6.07
2023-02-11T13:33:21.555Z,6.06
2023-02-11T13:34:44.066Z,6.19
2023-02-11T13:36:07.078Z,5.80
2023-02-11T13:37:34.888Z,5.64
2023-02-11T13:38:39.323Z,5.43
2023-02-11T13:39:42.151Z,5.67
2023-02-11T13:40:47.665Z,5.68
2023-02-11T13:41:52.886Z,6.00
2023-02-11T13:42:58.620Z,5.95
2023-02-11T13:44:09.171Z,5.58
2023-02-11T13:45:28.359Z,5.66
2023-02-11T13:46:56.127Z,5.45
2023-02-11T13:48:02.717Z,5.43
2023-02-11T13:49:05.958Z,5.56
2023-02-11T13:50:21.992Z,5.56
2023-02-11T13:51:38.104Z,5.53
2023-02-11T13:52:42.942Z,5.31
2023-02-11T13:53:53.204Z,4.97
2023-02-11T13:54:59.755Z,4.54
2023-02-11T13:56:12.114Z,4.63
2023-02-11T13:57:21.071Z,4.58
2023-02-11T13:58:30.029Z,4.63
2023-02-11T13:59:33.552Z,4.72
2023-02-11T14:00:36.480Z,4.52
2023-02-11T14:02:23.531Z,4.24
2023-02-11T14:03:51.632Z,4.35
2023-02-11T14:05:22.591Z,4.50
2023-02-11T14:06:47.376Z,4.25
2023-02-11T14:08:30.575Z,3.99
2023-02-11T14:09:38.129Z,3.88
2023-02-11T14:10:44.445Z,3.73
2023-02-11T14:11:51.161Z,3.81
2023-02-11T14:13:22.089Z,3.74
2023-02-11T14:14:36.615Z,3.84
2023-02-11T14:15:41.957Z,3.77
2023-02-11T14:17:00.427Z,3.74
2023-02-11T14:18:24.768Z,3.67
2023-02-11T14:19:52.010Z,3.78
2023-02-11T14:21:12.388Z,3.61
2023-02-11T14:22:26.801Z,3.48
2023-02-11T14:23:29.619Z,3.57
2023-02-11T14:24:33.048Z,3.60
2023-02-11T14:25:39.057Z,3.61
2023-02-11T14:26:44.636Z,3.62
2023-02-11T14:27:52.193Z,3.50
2023-02-11T14:29:27.895Z,3.45
2023-02-11T14:31:16.468Z,3.41
2023-02-11T14:32:38.566Z,3.42
2023-02-11T14:34:00.644Z,3.44
2023-02-11T14:35:26.242Z,3.37
2023-02-11T14:37:06.805Z,3.43
2023-02-11T14:38:32.205Z,3.51
2023-02-11T14:39:45.859Z,3.52
2023-02-11T14:41:02.159Z,3.42
2023-02-11T14:42:05.715Z,3.45
2023-02-11T14:43:26.352Z,3.54
2023-02-11T14:44:34.833Z,3.49
2023-02-11T14:45:38.876Z,3.44
2023-02-11T14:46:46.936Z,3.38
2023-02-11T14:47:56.376Z,3.34